Terminal Aerodrome Forecast
Issued by NWS Northern Indiana

Home | Current Version | Previous Version | Graphics & Text | Print | Product List | Glossary On
Versions: 1 2 3 4 5 6 7 8 9 10 11 12 13 14
065
FTUS43 KIWX 192339
TAFFWA
TAF
KFWA 192339Z 2000/2024 15006KT P6SM SCT040
     FM201000 17008KT P6SM VCSH BKN060
     FM201500 19010KT 6SM -SHRA BR VCTS OVC020CB
     FM201800 20008KT 3SM SHRA BR VCTS OVC015CB
     FM202300 VRB05KT 2SM SHRA BR OVC008=

USA.gov is the U.S. government's official web portal to all federal, state and local government web resources and services.